createdAt,value
2019-01-16T00:00:24.787Z,100461.34
2019-01-16T00:03:13.108Z,100455.52
2019-01-16T00:06:11.710Z,100450.37
2019-01-16T00:09:13.264Z,100458.36
2019-01-16T00:12:03.870Z,100451.31
2019-01-16T00:14:51.015Z,100442.70
2019-01-16T00:17:49.435Z,100447.12
2019-01-16T00:20:54.316Z,100446.05
2019-01-16T00:23:50.016Z,100449.66
2019-01-16T00:26:48.360Z,100447.25
2019-01-16T00:29:36.797Z,100439.96
2019-01-16T00:32:15.567Z,100436.02
2019-01-16T00:35:14.235Z,100434.82
2019-01-16T00:37:58.449Z,100438.65
2019-01-16T00:40:53.756Z,100437.45
2019-01-16T00:44:01.667Z,100441.88
2019-01-16T00:46:54.153Z,100437.57
2019-01-16T00:49:35.461Z,100430.53
2019-01-16T00:52:19.291Z,100432.06
2019-01-16T00:55:21.202Z,100433.29
2019-01-16T00:58:22.581Z,100438.40
2019-01-16T01:01:10.967Z,100430.89
2019-01-16T01:04:08.331Z,100429.80
2019-01-16T01:06:57.833Z,100437.67
2019-01-16T01:09:58.733Z,100431.98
2019-01-16T01:12:47.513Z,100438.89
2019-01-16T01:15:40.465Z,100434.59
2019-01-16T01:18:32.405Z,100426.72
2019-01-16T01:21:20.060Z,100435.79
2019-01-16T01:24:14.668Z,100430.77
2019-01-16T01:27:07.201Z,100431.50
2019-01-16T01:29:54.332Z,100433.84
2019-01-16T01:32:46.496Z,100431.84
2019-01-16T01:35:38.826Z,100434.92
2019-01-16T01:38:40.095Z,100439.00
2019-01-16T01:41:35.902Z,100434.95
2019-01-16T01:44:25.522Z,100437.92
2019-01-16T01:47:24.279Z,100436.48
2019-01-16T01:50:22.773Z,100436.86
2019-01-16T01:53:12.191Z,100443.91
2019-01-16T01:56:04.682Z,100440.93
2019-01-16T01:59:00.018Z,100434.71
2019-01-16T02:01:43.130Z,100441.63
2019-01-16T02:04:35.724Z,100435.66
2019-01-16T02:07:24.313Z,100444.02
2019-01-16T02:10:08.064Z,100432.33
2019-01-16T02:12:57.452Z,100437.23
2019-01-16T02:15:56.050Z,100434.22
2019-01-16T02:18:47.498Z,100437.67
2019-01-16T02:21:41.716Z,100434.83
2019-01-16T02:24:37.385Z,100433.05
2019-01-16T02:27:35.902Z,100430.03
2019-01-16T02:30:28.948Z,100434.59
2019-01-16T02:33:17.327Z,100429.92
2019-01-16T02:36:15.993Z,100425.28
2019-01-16T02:39:04.109Z,100425.15
2019-01-16T02:41:52.463Z,100424.94
2019-01-16T02:44:54.041Z,100414.42
2019-01-16T02:47:46.252Z,100422.18
2019-01-16T02:50:38.552Z,100415.35
2019-01-16T02:53:30.910Z,100405.94
2019-01-16T02:56:18.431Z,100405.23
2019-01-16T02:59:20.028Z,100409.03
2019-01-16T03:02:08.357Z,100401.39
2019-01-16T03:04:50.487Z,100406.40
2019-01-16T03:07:35.004Z,100395.92
2019-01-16T03:10:18.067Z,100391.14
2019-01-16T03:13:16.478Z,100394.60
2019-01-16T03:16:15.133Z,100389.72
2019-01-16T03:19:04.938Z,100381.11
2019-01-16T03:22:00.618Z,100382.19
2019-01-16T03:24:58.866Z,100380.76
2019-01-16T03:27:39.716Z,100375.13
2019-01-16T05:03:48.375Z,100295.72
2019-01-16T05:06:36.415Z,100287.84
2019-01-16T05:09:20.987Z,100286.87
2019-01-16T05:12:09.287Z,100280.80
2019-01-16T05:14:57.903Z,100281.04
2019-01-16T05:17:46.346Z,100286.75
2019-01-16T05:20:48.300Z,100282.12
2019-01-16T05:23:40.906Z,100282.47
2019-01-16T05:26:27.791Z,100286.17
2019-01-16T05:29:26.961Z,100277.33
2019-01-16T05:32:16.875Z,100278.77
2019-01-16T05:35:04.937Z,100269.33
2019-01-16T05:38:03.510Z,100275.90
2019-01-16T05:41:05.232Z,100266.70
2019-01-16T05:43:57.438Z,100263.73
2019-01-16T05:46:59.116Z,100255.35
2019-01-16T05:49:49.218Z,100262.65
2019-01-16T05:52:37.428Z,100261.80
2019-01-16T05:55:25.970Z,100254.04
2019-01-16T05:58:14.287Z,100260.02
2019-01-16T06:01:02.315Z,100255.27
2019-01-16T06:03:55.756Z,100250.25
2019-01-16T06:06:44.042Z,100258.95
2019-01-16T06:09:42.891Z,100256.20
2019-01-16T06:12:36.448Z,100249.52
2019-01-16T06:15:22.563Z,100248.78
2019-01-16T06:18:10.930Z,100250.82
2019-01-16T06:21:15.600Z,100235.41
2019-01-16T06:24:05.087Z,100240.09
2019-01-16T06:26:53.067Z,100240.55
2019-01-16T06:29:45.464Z,100241.86
2019-01-16T06:32:50.224Z,100236.72
2019-01-16T06:35:38.247Z,100235.41
2019-01-16T06:38:27.723Z,100233.75
2019-01-16T06:41:10.926Z,100236.00
2019-01-16T06:43:49.439Z,100239.01
2019-01-16T06:46:41.648Z,100228.73
2019-01-16T06:49:29.964Z,100238.66
2019-01-16T06:52:19.570Z,100229.01
2019-01-16T06:55:13.973Z,100237.34
2019-01-16T06:58:02.431Z,100236.66
2019-01-16T07:01:00.970Z,100237.36
2019-01-16T07:03:49.116Z,100237.70
2019-01-16T07:06:37.337Z,100241.06
2019-01-16T07:09:21.765Z,100238.78
2019-01-16T07:12:14.042Z,100247.28
2019-01-16T07:15:02.401Z,100239.52
2019-01-16T07:17:45.912Z,100238.94
2019-01-16T07:20:41.481Z,100233.92
2019-01-16T07:23:33.755Z,100231.29
2019-01-16T07:26:25.051Z,100231.75
2019-01-16T07:29:11.837Z,100227.82
2019-01-16T07:32:04.236Z,100232.83
2019-01-16T07:34:51.323Z,100238.44
2019-01-16T07:37:47.703Z,100224.34
2019-01-16T07:40:49.174Z,100228.78
2019-01-16T07:43:33.807Z,100232.11
2019-01-16T07:46:38.646Z,100228.78
2019-01-16T07:49:26.874Z,100225.30
2019-01-16T07:52:11.926Z,100222.06
2019-01-16T07:55:10.725Z,100227.66
2019-01-16T07:58:12.239Z,100224.80
2019-01-16T08:01:01.819Z,100216.80
2019-01-16T08:03:54.295Z,100223.98
2019-01-16T08:06:42.463Z,100226.38
2019-01-16T08:09:25.662Z,100218.84
2019-01-16T08:12:15.690Z,100227.08
2019-01-16T08:15:08.421Z,100219.81
2019-01-16T08:17:49.891Z,100219.81
2019-01-16T08:20:38.123Z,100220.40
2019-01-16T08:23:26.675Z,100218.12
2019-01-16T08:26:13.671Z,100216.80
2019-01-16T08:29:09.191Z,100204.98
2019-01-16T08:31:58.630Z,100208.69
2019-01-16T08:35:06.570Z,100208.30
2019-01-16T08:38:02.257Z,100200.70
2019-01-16T08:41:01.950Z,100197.94
2019-01-16T08:43:51.499Z,100201.38
2019-01-16T08:46:34.952Z,100199.71
2019-01-16T08:49:23.133Z,100200.75
2019-01-16T08:52:22.812Z,100194.69
2019-01-16T08:55:24.220Z,100196.00
2019-01-16T08:58:12.190Z,100188.08
2019-01-16T09:01:10.563Z,100188.05
2019-01-16T09:04:06.095Z,100197.65
2019-01-16T09:06:54.420Z,100182.81
2019-01-16T09:09:34.066Z,100171.72
2019-01-16T09:12:22.403Z,100177.22
2019-01-16T09:15:11.244Z,100169.44
2019-01-16T09:18:01.349Z,100171.55
2019-01-16T09:21:09.319Z,100171.30
2019-01-16T09:23:58.875Z,100168.33
2019-01-16T09:26:50.860Z,100171.48
2019-01-16T09:29:43.198Z,100161.91
2019-01-16T10:20:14.853Z,100148.41
2019-01-16T10:23:01.749Z,100143.84
2019-01-16T10:25:49.981Z,100136.23
2019-01-16T10:28:38.419Z,100130.66
2019-01-16T10:31:23.583Z,100130.00
2019-01-16T10:34:12.012Z,100134.19
2019-01-16T10:37:00.514Z,100125.34
2019-01-16T10:39:48.529Z,100119.48
2019-01-16T10:42:35.223Z,100114.39
2019-01-16T10:45:33.291Z,100114.05
2019-01-16T10:48:28.428Z,100109.13
2019-01-16T10:51:17.853Z,100100.91
2019-01-16T10:54:06.844Z,100094.52
2019-01-16T10:56:59.289Z,100090.91
2019-01-16T10:59:43.526Z,100087.76
2019-01-16T11:02:31.823Z,100088.19
2019-01-16T11:05:27.863Z,100090.91
2019-01-16T11:08:08.137Z,100083.89
2019-01-16T11:10:51.613Z,100092.90
2019-01-16T11:13:41.163Z,100088.86
2019-01-16T11:16:46.825Z,100072.79
2019-01-16T11:19:34.834Z,100069.94
2019-01-16T11:22:30.647Z,100071.03
2019-01-16T11:25:20.075Z,100068.91
2019-01-16T11:28:15.542Z,100063.44
2019-01-16T11:30:59.595Z,100064.44
2019-01-16T11:33:47.841Z,100050.67
2019-01-16T11:36:49.641Z,100046.83
2019-01-16T11:39:31.834Z,100040.76
2019-01-16T11:42:20.355Z,100038.45
2019-01-16T11:45:25.127Z,100037.59
2019-01-16T11:48:17.611Z,100031.56
2019-01-16T11:51:22.433Z,100020.20
2019-01-16T11:54:10.360Z,100022.23
2019-01-16T11:56:57.145Z,100025.27
2019-01-16T11:59:52.563Z,100015.58
2019-01-16T12:02:54.294Z,100008.63
2019-01-16T12:05:46.558Z,100005.31
2019-01-16T12:08:27.823Z,99999.97
2019-01-16T12:11:23.734Z,99999.72
2019-01-16T12:14:05.954Z,99992.87
2019-01-16T12:16:55.352Z,99992.21
2019-01-16T12:19:44.827Z,99979.08
2019-01-16T12:22:33.206Z,99980.02
2019-01-16T12:25:12.380Z,99969.38
2019-01-16T12:28:07.910Z,99971.16
2019-01-16T12:30:50.928Z,99961.75
2019-01-16T12:33:38.391Z,99966.34
2019-01-16T12:36:23.439Z,99961.19
2019-01-16T12:39:11.458Z,99957.93
2019-01-16T12:42:04.164Z,99961.09
2019-01-16T12:44:52.376Z,99949.18
2019-01-16T12:47:40.920Z,99947.87
2019-01-16T12:50:19.281Z,99943.45
2019-01-16T12:53:23.907Z,99951.03
2019-01-16T12:56:28.555Z,99940.52
2019-01-16T12:59:16.923Z,99948.72
2019-01-16T13:02:05.237Z,99935.95
2019-01-16T13:04:54.305Z,99932.36
2019-01-16T13:07:42.428Z,99942.27
2019-01-16T13:10:41.510Z,99935.80
2019-01-16T13:13:30.893Z,99935.52
2019-01-16T13:16:24.075Z,99926.51
2019-01-16T13:19:04.711Z,99937.45
2019-01-16T13:21:52.371Z,99933.42
2019-01-16T13:24:44.262Z,99927.73
2019-01-16T13:27:25.489Z,99922.45
2019-01-16T13:30:30.138Z,99919.51
2019-01-16T13:33:18.328Z,99912.19
2019-01-16T13:36:06.479Z,99912.14
2019-01-16T13:38:53.732Z,99910.66
2019-01-16T13:41:32.631Z,99912.85
2019-01-16T13:44:21.019Z,99908.91
2019-01-16T13:47:13.545Z,99900.69
2019-01-16T13:50:15.370Z,99901.37
2019-01-16T13:53:19.913Z,99904.76
2019-01-16T13:56:09.302Z,99909.48
2019-01-16T13:58:58.747Z,99921.08
2019-01-16T14:01:39.354Z,99908.73
2019-01-16T14:04:31.914Z,99899.20
2019-01-16T14:07:21.382Z,99901.98
2019-01-16T14:10:09.442Z,99897.70
2019-01-16T14:12:58.828Z,99900.92
2019-01-16T14:15:48.607Z,99882.20
2019-01-16T14:18:40.951Z,99895.76
2019-01-16T14:21:53.026Z,99886.01
2019-01-16T14:28:40.721Z,99874.79
2019-01-16T14:31:33.105Z,99877.57
2019-01-16T14:34:20.919Z,99887.44
2019-01-16T14:37:28.871Z,99874.97
2019-01-16T14:40:16.980Z,99873.48
2019-01-16T14:43:01.974Z,99872.90
2019-01-16T14:45:50.528Z,99880.64
2019-01-16T14:48:58.573Z,99866.91
2019-01-16T14:51:50.700Z,99867.30
2019-01-16T14:54:38.911Z,99864.30
2019-01-16T14:57:40.535Z,99860.30
2019-01-16T15:00:32.635Z,99855.75
2019-01-16T15:03:23.846Z,99868.52
2019-01-16T15:06:04.530Z,99868.89
2019-01-16T15:09:12.278Z,99864.73
2019-01-16T15:12:00.464Z,99861.07
2019-01-16T15:15:04.743Z,99864.48
2019-01-16T15:17:43.624Z,99866.31
2019-01-16T15:20:31.336Z,99858.23
2019-01-16T15:23:19.593Z,99860.00
2019-01-16T15:26:00.048Z,99869.42
2019-01-16T15:28:49.724Z,99861.84
2019-01-16T15:42:33.345Z,99848.86
2019-01-16T15:48:46.874Z,99841.45
2019-01-16T15:51:35.888Z,99827.14
2019-01-16T15:54:29.108Z,99831.23
2019-01-16T15:57:21.751Z,99839.46
2019-01-16T16:00:20.619Z,99830.28
2019-01-16T16:03:10.361Z,99828.51
2019-01-16T16:06:06.005Z,99828.30
2019-01-16T16:09:04.888Z,99829.95
2019-01-16T16:11:53.689Z,99827.31
2019-01-16T16:14:43.668Z,99817.81
2019-01-16T16:17:50.321Z,99810.28
2019-01-16T16:20:44.722Z,99822.01
2019-01-16T16:27:08.415Z,99813.99
2019-01-16T16:31:20.723Z,99815.09
2019-01-16T16:34:11.782Z,99814.48
2019-01-16T16:37:19.422Z,99813.09
2019-01-16T16:40:03.520Z,99792.41
2019-01-16T16:43:06.321Z,99790.59
2019-01-16T16:45:55.048Z,99780.16
2019-01-16T16:48:43.253Z,99776.70
2019-01-16T16:51:31.745Z,99778.58
2019-01-16T16:54:39.678Z,99784.58
2019-01-16T16:57:25.132Z,99774.09
2019-01-16T17:00:04.712Z,99772.91
2019-01-16T17:03:00.276Z,99763.14
2019-01-16T17:05:55.571Z,99760.52
2019-01-16T17:08:43.955Z,99768.27
2019-01-16T17:11:32.311Z,99765.20
2019-01-16T17:14:24.026Z,99755.53
2019-01-16T17:17:23.206Z,99739.23
2019-01-16T17:20:11.977Z,99743.68
2019-01-16T17:23:11.121Z,99730.48
2019-01-16T17:26:00.646Z,99733.69
2019-01-16T17:28:50.928Z,99726.73
2019-01-16T17:31:42.275Z,99727.10
2019-01-16T17:34:26.101Z,99724.28
2019-01-16T17:37:28.852Z,99717.75
2019-01-16T17:44:03.297Z,99712.94
2019-01-16T17:46:56.966Z,99712.39
2019-01-16T17:49:49.579Z,99703.56
2019-01-16T17:53:04.950Z,99700.77
2019-01-16T17:55:53.391Z,99688.91
2019-01-16T17:58:49.135Z,99692.62
2019-01-16T18:01:45.319Z,99679.50
2019-01-16T18:05:02.432Z,99683.57
2019-01-16T18:07:52.129Z,99682.59
2019-01-16T18:10:44.209Z,99665.95
2019-01-16T18:13:33.131Z,99672.50
2019-01-16T18:16:25.872Z,99676.68
2019-01-16T18:19:31.689Z,99667.29
2019-01-16T18:22:21.312Z,99665.70
2019-01-16T18:25:26.114Z,99665.41
2019-01-16T18:28:12.836Z,99659.11
2019-01-16T18:31:00.958Z,99658.78
2019-01-16T18:33:51.161Z,99671.88
2019-01-16T18:36:39.863Z,99662.94
2019-01-16T18:39:29.859Z,99650.02
2019-01-16T18:42:25.308Z,99645.37
2019-01-16T18:45:13.514Z,99643.47
2019-01-16T18:47:52.648Z,99642.97
2019-01-16T18:50:41.402Z,99632.05
2019-01-16T18:53:29.445Z,99631.31
2019-01-16T18:56:18.848Z,99632.05
2019-01-16T18:59:01.835Z,99617.31
2019-01-16T19:01:51.273Z,99625.04
2019-01-16T19:04:41.944Z,99613.30
2019-01-16T19:07:43.014Z,99613.41
2019-01-16T19:10:23.736Z,99607.70
2019-01-16T19:13:11.769Z,99606.61
2019-01-16T19:16:01.961Z,99599.28
2019-01-16T19:19:06.920Z,99583.91
2019-01-16T19:22:05.433Z,99585.10
2019-01-16T19:25:10.225Z,99597.00
2019-01-16T19:27:55.246Z,99601.41
2019-01-16T19:30:34.009Z,99587.64
2019-01-16T19:33:17.847Z,99596.68
2019-01-16T19:36:02.355Z,99599.08
2019-01-16T19:38:47.278Z,99596.70
2019-01-16T19:41:28.485Z,99604.76
2019-01-16T19:44:16.471Z,99602.73
2019-01-16T19:46:57.740Z,99594.65
2019-01-16T19:49:38.437Z,99591.91
2019-01-16T19:52:20.086Z,99586.01
2019-01-16T19:55:09.532Z,99570.84
2019-01-16T19:57:57.609Z,99566.40
2019-01-16T20:00:50.085Z,99573.00
2019-01-16T20:03:48.857Z,99556.10
2019-01-16T20:06:40.023Z,99558.96
2019-01-16T20:09:28.727Z,99563.62
2019-01-16T20:12:21.195Z,99558.16
2019-01-16T20:15:09.252Z,99550.22
2019-01-16T20:17:57.353Z,99546.98
2019-01-16T20:20:45.419Z,99542.02
2019-01-16T20:23:26.386Z,99532.52
2019-01-16T20:26:27.314Z,99534.86
2019-01-16T20:29:15.735Z,99528.72
2019-01-16T20:32:08.953Z,99523.59
2019-01-16T20:34:53.479Z,99512.18
2019-01-16T20:37:46.003Z,99522.41
2019-01-16T20:40:38.713Z,99512.06
2019-01-16T20:43:27.014Z,99503.13
2019-01-16T20:46:17.648Z,99497.89
2019-01-16T20:49:19.516Z,99506.36
2019-01-16T20:52:10.528Z,99499.42
2019-01-16T20:54:59.989Z,99490.29
2019-01-16T20:57:55.414Z,99497.20
2019-01-16T21:00:44.011Z,99492.91
2019-01-16T21:03:32.151Z,99482.09
2019-01-16T21:06:30.996Z,99476.98
2019-01-16T21:09:15.093Z,99476.63
2019-01-16T21:12:04.640Z,99464.12
2019-01-16T21:14:57.258Z,99457.75
2019-01-16T21:17:53.766Z,99457.77
2019-01-16T21:20:51.547Z,99451.33
2019-01-16T21:23:38.717Z,99446.54
2019-01-16T21:26:28.246Z,99446.34
2019-01-16T21:29:21.166Z,99447.99
2019-01-16T21:32:10.521Z,99436.66
2019-01-16T21:34:58.514Z,99432.05
2019-01-16T21:37:50.659Z,99426.48
2019-01-16T21:40:38.882Z,99414.05
2019-01-16T21:43:26.946Z,99420.38
2019-01-16T21:46:16.323Z,99412.09
2019-01-16T21:49:23.936Z,99407.67
2019-01-16T21:52:16.029Z,99415.83
2019-01-16T21:55:05.057Z,99394.22
2019-01-16T21:57:57.697Z,99406.33
2019-01-16T22:00:47.144Z,99397.08
2019-01-16T22:03:35.445Z,99385.19
2019-01-16T22:06:24.324Z,99390.33
2019-01-16T22:09:15.351Z,99391.26
2019-01-16T22:12:03.635Z,99382.91
2019-01-16T22:15:11.543Z,99368.59
2019-01-16T22:18:00.170Z,99371.55
2019-01-16T22:20:49.655Z,99373.66
2019-01-16T22:23:42.088Z,99364.30
2019-01-16T22:26:30.391Z,99367.66
2019-01-16T22:29:17.353Z,99372.42
2019-01-16T22:31:59.874Z,99360.37
2019-01-16T22:35:01.635Z,99364.13
2019-01-16T22:37:51.634Z,99358.81
2019-01-16T22:40:38.717Z,99354.98
2019-01-16T22:43:25.893Z,99342.03
2019-01-16T22:46:15.250Z,99341.62
2019-01-16T22:49:05.532Z,99339.35
2019-01-16T22:52:01.118Z,99333.00
2019-01-16T22:54:48.458Z,99336.20
2019-01-16T22:57:37.861Z,99325.75
2019-01-16T23:00:42.433Z,99334.62
2019-01-16T23:03:30.682Z,99336.05
2019-01-16T23:06:20.081Z,99331.23
2019-01-16T23:09:00.091Z,99334.00
2019-01-16T23:11:48.389Z,99329.52
2019-01-16T23:14:33.206Z,99330.95
2019-01-16T23:17:14.327Z,99320.98
2019-01-16T23:20:02.144Z,99322.13
2019-01-16T23:22:48.040Z,99313.16
2019-01-16T23:25:46.541Z,99313.39
2019-01-16T23:28:34.998Z,99308.94
2019-01-16T23:31:23.221Z,99298.79
2019-01-16T23:34:15.425Z,99296.57
2019-01-16T23:37:01.530Z,99300.06
2019-01-16T23:39:54.075Z,99293.37
2019-01-16T23:42:58.650Z,99292.65
2019-01-16T23:45:50.987Z,99283.91
2019-01-16T23:48:43.177Z,99284.06
2019-01-16T23:51:32.682Z,99283.91
2019-01-16T23:54:24.877Z,99279.98
2019-01-16T23:57:12.541Z,99271.81
